createdAt,value
2022-10-11T00:01:51.654Z,16.94
2022-10-11T00:07:23.373Z,16.68
2022-10-11T00:13:01.507Z,16.72
2022-10-11T00:18:33.177Z,16.66
2022-10-11T00:24:04.937Z,16.56
2022-10-11T00:29:36.713Z,16.53
2022-10-11T00:35:08.366Z,16.51
2022-10-11T00:40:40.174Z,16.39
2022-10-11T00:46:11.821Z,16.43
2022-10-11T00:51:43.582Z,16.48
2022-10-11T00:57:15.335Z,16.36
2022-10-11T01:02:47.066Z,16.27
2022-10-11T01:08:20.050Z,16.37
2022-10-11T01:13:56.867Z,16.34
2022-10-11T01:19:28.584Z,16.29
2022-10-11T01:25:00.268Z,16.14
2022-10-11T01:30:32.050Z,16.14
2022-10-11T01:36:03.928Z,16.14
2022-10-11T01:41:35.557Z,16.03
2022-10-11T01:47:07.241Z,15.98
2022-10-11T01:52:39.002Z,15.88
2022-10-11T01:58:10.690Z,15.85
2022-10-11T02:03:42.378Z,15.93
2022-10-11T02:09:14.174Z,15.95
2022-10-11T02:14:50.281Z,15.97
2022-10-11T02:20:22.019Z,15.99
2022-10-11T02:25:53.726Z,15.98
2022-10-11T02:31:25.446Z,16.05
2022-10-11T02:36:57.198Z,16.06
2022-10-11T02:42:28.967Z,16.01
2022-10-11T02:48:00.623Z,15.86
2022-10-11T02:53:32.405Z,15.79
2022-10-11T02:59:04.123Z,15.78
2022-10-11T03:04:36.030Z,16.01
2022-10-11T03:10:07.784Z,16.02
2022-10-11T03:15:43.937Z,15.66
2022-10-11T03:21:15.661Z,15.58
2022-10-11T03:26:47.335Z,15.73
2022-10-11T03:32:19.086Z,15.96
2022-10-11T03:37:50.830Z,16.24
2022-10-11T03:43:22.583Z,16.29
2022-10-11T03:48:54.223Z,16.34
2022-10-11T03:54:25.957Z,16.09
2022-10-11T03:59:57.698Z,16.25
2022-10-11T04:05:29.430Z,16.22
2022-10-11T04:11:01.151Z,16.04
2022-10-11T04:16:37.390Z,16.01
2022-10-11T04:22:09.129Z,16.08
2022-10-11T04:27:40.858Z,16.17
2022-10-11T04:33:12.578Z,16.24
2022-10-11T04:38:44.694Z,16.26
2022-10-11T04:44:16.080Z,16.26
2022-10-11T04:49:47.772Z,16.34
2022-10-11T04:55:19.722Z,16.29
2022-10-11T05:00:51.230Z,16.05
2022-10-11T05:06:22.949Z,15.8
2022-10-11T05:11:54.654Z,15.89
2022-10-11T05:17:30.789Z,15.69
2022-10-11T05:23:02.561Z,15.93
2022-10-11T05:28:34.288Z,15.86
2022-10-11T05:34:05.978Z,15.9
2022-10-11T05:39:37.686Z,15.86
2022-10-11T05:45:09.434Z,15.51
2022-10-11T05:50:41.132Z,15.69
2022-10-11T05:56:12.870Z,15.49
2022-10-11T06:01:44.677Z,15.45
2022-10-11T06:07:16.338Z,15.49
2022-10-11T06:12:48.082Z,15.43
2022-10-11T06:18:26.203Z,15.34
2022-10-11T06:24:01.255Z,15.75
2022-10-11T06:29:29.593Z,15.36
2022-10-11T06:35:01.329Z,15.34
2022-10-11T06:40:33.044Z,15.13
2022-10-11T06:46:05.084Z,15.28
2022-10-11T06:51:36.489Z,15.16
2022-10-11T06:57:08.234Z,15.25
2022-10-11T07:02:39.989Z,15.13
2022-10-11T07:08:11.714Z,14.94
2022-10-11T07:13:43.454Z,15.09
2022-10-11T07:19:19.566Z,15.15
2022-10-11T07:24:51.254Z,15.03
2022-10-11T07:30:23.013Z,14.81
2022-10-11T07:35:54.754Z,15.01
2022-10-11T07:41:26.491Z,15.14
2022-10-11T07:46:58.246Z,15.02
2022-10-11T07:52:30.068Z,15.02
2022-10-11T07:58:01.642Z,14.99
2022-10-11T08:03:33.361Z,15.01
2022-10-11T08:09:05.182Z,15.01
2022-10-11T08:14:36.870Z,14.94
2022-10-11T08:20:12.921Z,14.84
2022-10-11T08:25:44.660Z,14.89
2022-10-11T08:31:16.403Z,15.04
2022-10-11T08:36:48.311Z,15.1
2022-10-11T08:42:19.845Z,15.05
2022-10-11T08:47:51.589Z,15.02
2022-10-11T08:53:23.281Z,15.09
2022-10-11T08:58:55.049Z,15.18
2022-10-11T09:04:26.814Z,15.44
2022-10-11T09:09:58.466Z,15.79
2022-10-11T09:15:30.224Z,15.65
2022-10-11T09:21:08.578Z,15.71
2022-10-11T09:26:40.029Z,15.74
2022-10-11T09:32:11.771Z,15.73
2022-10-11T09:37:43.554Z,15.88
2022-10-11T09:43:15.230Z,15.74
2022-10-11T09:48:46.957Z,15.76
2022-10-11T09:54:18.789Z,16.07
2022-10-11T09:59:50.469Z,16.21
2022-10-11T10:05:22.221Z,16.15
2022-10-11T10:10:58.539Z,15.93
2022-10-11T10:16:25.598Z,15.87
2022-10-11T10:22:01.748Z,15.93
2022-10-11T10:27:33.502Z,16.05
2022-10-11T10:33:05.502Z,15.73
2022-10-11T10:38:37.017Z,15.74
2022-10-11T10:44:08.680Z,15.95
2022-10-11T10:49:54.336Z,15.78
2022-10-11T10:55:12.373Z,16.04
2022-10-11T11:00:43.926Z,16.04
2022-10-11T11:06:15.587Z,16.06
2022-10-11T11:11:47.343Z,16.39
2022-10-11T11:17:19.128Z,16.19
2022-10-11T11:22:55.222Z,16.49
2022-10-11T11:28:26.957Z,16.48
2022-10-11T11:33:58.651Z,16.64
2022-10-11T11:39:30.760Z,16.15
